sensor_id;sensor_type;location;lat;lon;timestamp;pressure;altitude;pressure_sealevel;temperature;humidity
17260;BME280;8746;49.230;9.220;2023-12-07T00:01:05;100241.59;;;2.04;100.00
17260;BME280;8746;49.230;9.220;2023-12-07T00:03:32;100243.31;;;2.02;100.00
17260;BME280;8746;49.230;9.220;2023-12-07T00:05:57;100241.59;;;2.01;100.00
17260;BME280;8746;49.230;9.220;2023-12-07T00:08:22;100238.13;;;2.01;100.00
17260;BME280;8746;49.230;9.220;2023-12-07T00:10:48;100235.53;;;2.07;100.00
17260;BME280;8746;49.230;9.220;2023-12-07T00:13:13;100232.91;;;2.08;100.00
17260;BME280;8746;49.230;9.220;2023-12-07T00:15:38;100236.38;;;2.11;100.00
17260;BME280;8746;49.230;9.220;2023-12-07T00:18:04;100232.03;;;2.14;100.00
17260;BME280;8746;49.230;9.220;2023-12-07T00:20:29;100241.59;;;2.11;100.00
17260;BME280;8746;49.230;9.220;2023-12-07T00:22:55;100236.38;;;2.11;100.00
17260;BME280;8746;49.230;9.220;2023-12-07T00:25:21;100242.47;;;2.08;100.00
17260;BME280;8746;49.230;9.220;2023-12-07T00:27:47;100232.03;;;2.06;100.00
17260;BME280;8746;49.230;9.220;2023-12-07T00:30:13;100242.44;;;2.05;100.00
17260;BME280;8746;49.230;9.220;2023-12-07T00:32:38;100244.19;;;2.01;100.00
17260;BME280;8746;49.230;9.220;2023-12-07T00:35:04;100238.97;;;2.03;100.00
17260;BME280;8746;49.230;9.220;2023-12-07T00:37:29;100250.25;;;2.06;100.00
17260;BME280;8746;49.230;9.220;2023-12-07T00:39:54;100256.31;;;2.04;100.00
17260;BME280;8746;49.230;9.220;2023-12-07T00:42:20;100258.06;;;2.03;100.00
17260;BME280;8746;49.230;9.220;2023-12-07T00:44:45;100253.72;;;2.08;100.00
17260;BME280;8746;49.230;9.220;2023-12-07T00:47:10;100256.34;;;2.07;100.00
17260;BME280;8746;49.230;9.220;2023-12-07T00:49:39;100257.19;;;2.07;100.00
17260;BME280;8746;49.230;9.220;2023-12-07T00:52:06;100258.91;;;2.05;100.00
17260;BME280;8746;49.230;9.220;2023-12-07T00:54:31;100264.13;;;2.02;100.00
17260;BME280;8746;49.230;9.220;2023-12-07T00:56:56;100256.31;;;2.04;100.00
17260;BME280;8746;49.230;9.220;2023-12-07T00:59:23;100258.94;;;2.04;100.00
17260;BME280;8746;49.230;9.220;2023-12-07T01:01:48;100265.88;;;2.03;100.00
17260;BME280;8746;49.230;9.220;2023-12-07T01:04:13;100269.34;;;2.10;100.00
17260;BME280;8746;49.230;9.220;2023-12-07T01:06:39;100272.78;;;2.09;100.00
17260;BME280;8746;49.230;9.220;2023-12-07T01:09:04;100269.34;;;2.08;100.00
17260;BME280;8746;49.230;9.220;2023-12-07T01:11:29;100271.94;;;2.07;100.00
17260;BME280;8746;49.230;9.220;2023-12-07T01:13:55;100273.69;;;2.10;100.00
17260;BME280;8746;49.230;9.220;2023-12-07T01:16:21;100279.75;;;2.10;100.00
17260;BME280;8746;49.230;9.220;2023-12-07T01:18:46;100283.22;;;2.11;100.00
17260;BME280;8746;49.230;9.220;2023-12-07T01:21:11;100287.56;;;2.13;100.00
17260;BME280;8746;49.230;9.220;2023-12-07T01:23:37;100288.44;;;2.11;100.00
17260;BME280;8746;49.230;9.220;2023-12-07T01:26:03;100288.41;;;2.07;100.00
17260;BME280;8746;49.230;9.220;2023-12-07T01:28:28;100292.75;;;2.04;100.00
17260;BME280;8746;49.230;9.220;2023-12-07T01:30:54;100293.63;;;2.07;100.00
17260;BME280;8746;49.230;9.220;2023-12-07T01:33:20;100291.91;;;2.08;100.00
17260;BME280;8746;49.230;9.220;2023-12-07T01:35:46;100296.22;;;2.03;100.00
17260;BME280;8746;49.230;9.220;2023-12-07T01:38:12;100295.38;;;2.01;100.00
17260;BME280;8746;49.230;9.220;2023-12-07T01:40:37;100292.75;;;1.96;100.00
17260;BME280;8746;49.230;9.220;2023-12-07T01:43:02;100292.78;;;1.95;100.00
17260;BME280;8746;49.230;9.220;2023-12-07T01:45:28;100291.00;;;1.90;100.00
17260;BME280;8746;49.230;9.220;2023-12-07T01:47:53;100295.38;;;1.90;100.00
17260;BME280;8746;49.230;9.220;2023-12-07T01:50:20;100296.22;;;1.86;100.00
17260;BME280;8746;49.230;9.220;2023-12-07T01:52:52;100289.28;;;1.80;100.00
17260;BME280;8746;49.230;9.220;2023-12-07T01:55:20;100292.75;;;1.71;100.00
17260;BME280;8746;49.230;9.220;2023-12-07T01:57:47;100290.13;;;1.65;100.00
17260;BME280;8746;49.230;9.220;2023-12-07T02:00:14;100296.16;;;1.61;100.00
17260;BME280;8746;49.230;9.220;2023-12-07T02:02:40;100298.78;;;1.52;100.00
17260;BME280;8746;49.230;9.220;2023-12-07T02:05:06;100298.72;;;1.42;100.00
17260;BME280;8746;49.230;9.220;2023-12-07T02:07:33;100297.84;;;1.36;100.00
17260;BME280;8746;49.230;9.220;2023-12-07T02:09:59;100306.47;;;1.27;100.00
17260;BME280;8746;49.230;9.220;2023-12-07T02:12:24;100300.34;;;1.12;100.00
17260;BME280;8746;49.230;9.220;2023-12-07T02:14:51;100312.47;;;1.04;100.00
17260;BME280;8746;49.230;9.220;2023-12-07T02:20:14;100316.72;;;0.91;100.00
17260;BME280;8746;49.230;9.220;2023-12-07T02:22:44;100317.53;;;0.83;100.00
17260;BME280;8746;49.230;9.220;2023-12-07T02:25:14;100310.56;;;0.72;100.00
17260;BME280;8746;49.230;9.220;2023-12-07T02:27:43;100304.47;;;0.69;100.00
17260;BME280;8746;49.230;9.220;2023-12-07T02:30:11;100309.63;;;0.62;100.00
17260;BME280;8746;49.230;9.220;2023-12-07T02:32:38;100303.53;;;0.56;100.00
17260;BME280;8746;49.230;9.220;2023-12-07T02:35:05;100306.97;;;0.55;100.00
17260;BME280;8746;49.230;9.220;2023-12-07T02:37:35;100304.34;;;0.47;100.00
17260;BME280;8746;49.230;9.220;2023-12-07T02:40:03;100302.59;;;0.43;100.00
17260;BME280;8746;49.230;9.220;2023-12-07T02:42:30;100312.13;;;0.45;100.00
17260;BME280;8746;49.230;9.220;2023-12-07T02:44:56;100312.94;;;0.40;100.00
17260;BME280;8746;49.230;9.220;2023-12-07T02:47:22;100315.50;;;0.37;100.00
17260;BME280;8746;49.230;9.220;2023-12-07T02:49:47;100308.56;;;0.31;100.00
17260;BME280;8746;49.230;9.220;2023-12-07T02:52:13;100312.84;;;0.26;100.00
17260;BME280;8746;49.230;9.220;2023-12-07T02:54:38;100316.19;;;0.15;100.00
17260;BME280;8746;49.230;9.220;2023-12-07T02:57:04;100313.56;;;0.06;100.00
17260;BME280;8746;49.230;9.220;2023-12-07T02:59:29;100313.50;;;0.00;100.00
17260;BME280;8746;49.230;9.220;2023-12-07T03:01:55;100310.00;;;-0.02;100.00
17260;BME280;8746;49.230;9.220;2023-12-07T03:04:20;100315.16;;;-0.08;100.00
17260;BME280;8746;49.230;9.220;2023-12-07T03:06:45;100314.25;;;-0.10;100.00
17260;BME280;8746;49.230;9.220;2023-12-07T03:09:11;100316.84;;;-0.13;100.00
17260;BME280;8746;49.230;9.220;2023-12-07T03:11:36;100316.75;;;-0.21;100.00
17260;BME280;8746;49.230;9.220;2023-12-07T03:14:01;100328.84;;;-0.22;100.00
17260;BME280;8746;49.230;9.220;2023-12-07T03:16:27;100325.34;;;-0.27;100.00
17260;BME280;8746;49.230;9.220;2023-12-07T03:18:52;100320.97;;;-0.29;100.00
17260;BME280;8746;49.230;9.220;2023-12-07T03:21:17;100321.84;;;-0.30;100.00
17260;BME280;8746;49.230;9.220;2023-12-07T03:23:43;100313.22;;;-0.28;100.00
17260;BME280;8746;49.230;9.220;2023-12-07T03:26:08;100321.84;;;-0.30;100.00
17260;BME280;8746;49.230;9.220;2023-12-07T03:28:33;100320.00;;;-0.41;100.00
17260;BME280;8746;49.230;9.220;2023-12-07T03:30:59;100330.34;;;-0.44;100.00
17260;BME280;8746;49.230;9.220;2023-12-07T03:33:24;100330.22;;;-0.56;100.00
17260;BME280;8746;49.230;9.220;2023-12-07T03:35:49;100328.41;;;-0.63;100.00
17260;BME280;8746;49.230;9.220;2023-12-07T03:38:15;100328.34;;;-0.68;100.00
17260;BME280;8746;49.230;9.220;2023-12-07T03:40:40;100337.81;;;-0.72;100.00
17260;BME280;8746;49.230;9.220;2023-12-07T03:43:06;100332.56;;;-0.76;100.00
17260;BME280;8746;49.230;9.220;2023-12-07T03:45:31;100327.38;;;-0.75;100.00
17260;BME280;8746;49.230;9.220;2023-12-07T03:47:56;100339.34;;;-0.88;100.00
17260;BME280;8746;49.230;9.220;2023-12-07T03:50:21;100335.69;;;-1.01;100.00
17260;BME280;8746;49.230;9.220;2023-12-07T03:52:47;100338.44;;;-0.90;100.00
17260;BME280;8746;49.230;9.220;2023-12-07T03:55:12;100347.88;;;-0.92;100.00
17260;BME280;8746;49.230;9.220;2023-12-07T03:57:38;100349.63;;;-0.94;100.00
17260;BME280;8746;49.230;9.220;2023-12-07T04:00:04;100348.69;;;-0.99;100.00
17260;BME280;8746;49.230;9.220;2023-12-07T04:02:33;100350.28;;;-1.07;100.00
17260;BME280;8746;49.230;9.220;2023-12-07T04:04:59;100358.84;;;-1.11;100.00
17260;BME280;8746;49.230;9.220;2023-12-07T04:07:27;100357.16;;;-1.09;100.00
17260;BME280;8746;49.230;9.220;2023-12-07T04:09:53;100365.75;;;-1.12;100.00
17260;BME280;8746;49.230;9.220;2023-12-07T04:12:19;100369.28;;;-1.05;100.00
17260;BME280;8746;49.230;9.220;2023-12-07T04:14:45;100368.44;;;-1.04;100.00
17260;BME280;8746;49.230;9.220;2023-12-07T04:17:10;100362.41;;;-1.05;100.00
17260;BME280;8746;49.230;9.220;2023-12-07T04:19:35;100359.84;;;-1.02;100.00
17260;BME280;8746;49.230;9.220;2023-12-07T04:22:01;100357.25;;;-1.03;100.00
17260;BME280;8746;49.230;9.220;2023-12-07T04:24:26;100358.84;;;-1.11;100.00
17260;BME280;8746;49.230;9.220;2023-12-07T04:26:51;100351.16;;;-1.07;100.00
17260;BME280;8746;49.230;9.220;2023-12-07T04:29:16;100354.63;;;-1.06;100.00
17260;BME280;8746;49.230;9.220;2023-12-07T04:31:42;100354.56;;;-1.09;100.00
17260;BME280;8746;49.230;9.220;2023-12-07T04:34:07;100357.19;;;-1.08;100.00
17260;BME280;8746;49.230;9.220;2023-12-07T04:36:32;100364.09;;;-1.08;100.00
17260;BME280;8746;49.230;9.220;2023-12-07T04:38:58;100365.00;;;-1.05;100.00
17260;BME280;8746;49.230;9.220;2023-12-07T04:41:23;100371.03;;;-1.04;100.00
17260;BME280;8746;49.230;9.220;2023-12-07T04:43:48;100361.53;;;-1.05;100.00
17260;BME280;8746;49.230;9.220;2023-12-07T04:46:14;100369.28;;;-1.05;100.00
17260;BME280;8746;49.230;9.220;2023-12-07T04:48:39;100371.03;;;-1.06;100.00
17260;BME280;8746;49.230;9.220;2023-12-07T04:51:05;100373.63;;;-1.06;100.00
17260;BME280;8746;49.230;9.220;2023-12-07T04:53:30;100381.38;;;-1.07;100.00
17260;BME280;8746;49.230;9.220;2023-12-07T04:55:56;100384.94;;;-0.99;100.00
17260;BME280;8746;49.230;9.220;2023-12-07T04:58:21;100384.13;;;-0.95;100.00
17260;BME280;8746;49.230;9.220;2023-12-07T05:00:47;100377.34;;;-0.85;100.00
17260;BME280;8746;49.230;9.220;2023-12-07T05:03:12;100374.66;;;-0.93;100.00
17260;BME280;8746;49.230;9.220;2023-12-07T05:05:37;100382.44;;;-0.91;100.00
17260;BME280;8746;49.230;9.220;2023-12-07T05:08:03;100384.22;;;-0.89;100.00
17260;BME280;8746;49.230;9.220;2023-12-07T05:10:28;100385.16;;;-0.82;100.00
17260;BME280;8746;49.230;9.220;2023-12-07T05:12:54;100381.75;;;-0.78;100.00
17260;BME280;8746;49.230;9.220;2023-12-07T05:15:19;100388.69;;;-0.77;100.00
17260;BME280;8746;49.230;9.220;2023-12-07T05:17:45;100389.59;;;-0.73;100.00
17260;BME280;8746;49.230;9.220;2023-12-07T05:20:10;100392.22;;;-0.70;100.00
17260;BME280;8746;49.230;9.220;2023-12-07T05:22:37;100384.44;;;-0.72;100.00
17260;BME280;8746;49.230;9.220;2023-12-07T05:25:03;100388.78;;;-0.69;100.00
17260;BME280;8746;49.230;9.220;2023-12-07T05:27:30;100381.94;;;-0.62;100.00
17260;BME280;8746;49.230;9.220;2023-12-07T05:29:55;100388.84;;;-0.65;100.00
17260;BME280;8746;49.230;9.220;2023-12-07T05:32:20;100385.41;;;-0.62;100.00
17260;BME280;8746;49.230;9.220;2023-12-07T05:34:46;100386.50;;;-0.43;100.00
17260;BME280;8746;49.230;9.220;2023-12-07T05:37:11;100389.91;;;-0.50;100.00
17260;BME280;8746;49.230;9.220;2023-12-07T05:39:37;100389.84;;;-0.53;100.00
17260;BME280;8746;49.230;9.220;2023-12-07T05:42:03;100391.53;;;-0.57;100.00
17260;BME280;8746;49.230;9.220;2023-12-07T05:44:29;100399.22;;;-0.65;100.00
17260;BME280;8746;49.230;9.220;2023-12-07T05:46:55;100391.53;;;-0.55;100.00
17260;BME280;8746;49.230;9.220;2023-12-07T05:49:22;100388.16;;;-0.48;100.00
17260;BME280;8746;49.230;9.220;2023-12-07T05:51:48;100390.69;;;-0.56;100.00
17260;BME280;8746;49.230;9.220;2023-12-07T05:54:14;100382.00;;;-0.59;100.00
17260;BME280;8746;49.230;9.220;2023-12-07T05:56:39;100385.50;;;-0.54;100.00
17260;BME280;8746;49.230;9.220;2023-12-07T05:59:06;100387.16;;;-0.61;100.00
17260;BME280;8746;49.230;9.220;2023-12-07T06:01:31;100388.09;;;-0.56;100.00
17260;BME280;8746;49.230;9.220;2023-12-07T06:03:57;100379.53;;;-0.49;100.00
17260;BME280;8746;49.230;9.220;2023-12-07T06:06:23;100377.03;;;-0.42;100.00
17260;BME280;8746;49.230;9.220;2023-12-07T06:08:48;100378.84;;;-0.32;100.00
17260;BME280;8746;49.230;9.220;2023-12-07T06:11:14;100375.38;;;-0.34;100.00
17260;BME280;8746;49.230;9.220;2023-12-07T06:13:39;100385.81;;;-0.28;100.00
17260;BME280;8746;49.230;9.220;2023-12-07T06:16:05;100391.94;;;-0.23;100.00
17260;BME280;8746;49.230;9.220;2023-12-07T06:18:30;100385.91;;;-0.19;100.00
17260;BME280;8746;49.230;9.220;2023-12-07T06:20:55;100381.69;;;-0.09;100.00
17260;BME280;8746;49.230;9.220;2023-12-07T06:23:21;100387.00;;;0.02;100.00
17260;BME280;8746;49.230;9.220;2023-12-07T06:25:46;100385.28;;;0.04;100.00
17260;BME280;8746;49.230;9.220;2023-12-07T06:28:12;100382.66;;;-0.01;100.00
17260;BME280;8746;49.230;9.220;2023-12-07T06:30:38;100387.84;;;-0.01;100.00
17260;BME280;8746;49.230;9.220;2023-12-07T06:33:03;100383.56;;;0.05;100.00
17260;BME280;8746;49.230;9.220;2023-12-07T06:35:29;100388.66;;;-0.05;100.00
17260;BME280;8746;49.230;9.220;2023-12-07T06:37:55;100386.13;;;0.00;100.00
17260;BME280;8746;49.230;9.220;2023-12-07T06:40:21;100383.38;;;-0.12;100.00
17260;BME280;8746;49.230;9.220;2023-12-07T06:42:46;100386.88;;;-0.12;100.00
17260;BME280;8746;49.230;9.220;2023-12-07T06:45:13;100381.56;;;-0.23;100.00
17260;BME280;8746;49.230;9.220;2023-12-07T06:47:40;100385.06;;;-0.19;100.00
17260;BME280;8746;49.230;9.220;2023-12-07T06:50:07;100391.16;;;-0.14;100.00
17260;BME280;8746;49.230;9.220;2023-12-07T06:52:39;100392.88;;;-0.14;100.00
17260;BME280;8746;49.230;9.220;2023-12-07T06:55:05;100397.31;;;-0.06;100.00
17260;BME280;8746;49.230;9.220;2023-12-07T06:57:30;100394.69;;;-0.06;100.00
17260;BME280;8746;49.230;9.220;2023-12-07T06:59:57;100397.31;;;-0.03;100.00
17260;BME280;8746;49.230;9.220;2023-12-07T07:02:22;100393.72;;;-0.17;100.00
17260;BME280;8746;49.230;9.220;2023-12-07T07:04:48;100397.25;;;-0.10;100.00
17260;BME280;8746;49.230;9.220;2023-12-07T07:07:14;100394.66;;;-0.09;100.00
17260;BME280;8746;49.230;9.220;2023-12-07T07:09:40;100403.38;;;-0.02;100.00
17260;BME280;8746;49.230;9.220;2023-12-07T07:12:05;100404.22;;;-0.05;100.00
17260;BME280;8746;49.230;9.220;2023-12-07T07:14:31;100400.75;;;-0.07;100.00
17260;BME280;8746;49.230;9.220;2023-12-07T07:16:56;100402.47;;;-0.06;100.00
17260;BME280;8746;49.230;9.220;2023-12-07T07:19:21;100404.22;;;-0.05;100.00
17260;BME280;8746;49.230;9.220;2023-12-07T07:21:47;100407.75;;;0.04;100.00
17260;BME280;8746;49.230;9.220;2023-12-07T07:24:12;100407.81;;;0.08;100.00
17260;BME280;8746;49.230;9.220;2023-12-07T07:26:37;100401.72;;;0.05;100.00
17260;BME280;8746;49.230;9.220;2023-12-07T07:29:03;100412.91;;;0.01;100.00
17260;BME280;8746;49.230;9.220;2023-12-07T07:31:29;100400.94;;;0.12;100.00
17260;BME280;8746;49.230;9.220;2023-12-07T07:33:55;100405.31;;;0.18;100.00
17260;BME280;8746;49.230;9.220;2023-12-07T07:36:21;100402.69;;;0.14;100.00
17260;BME280;8746;49.230;9.220;2023-12-07T07:38:46;100400.94;;;0.13;100.00
17260;BME280;8746;49.230;9.220;2023-12-07T07:41:13;100405.38;;;0.24;100.00
17260;BME280;8746;49.230;9.220;2023-12-07T07:43:38;100401.94;;;0.26;100.00
17260;BME280;8746;49.230;9.220;2023-12-07T07:46:04;100408.91;;;0.32;100.00
17260;BME280;8746;49.230;9.220;2023-12-07T07:48:30;100414.91;;;0.28;100.00
17260;BME280;8746;49.230;9.220;2023-12-07T07:50:55;100413.25;;;0.33;100.00
17260;BME280;8746;49.230;9.220;2023-12-07T07:53:21;100416.75;;;0.41;100.00
17260;BME280;8746;49.230;9.220;2023-12-07T07:55:46;100424.56;;;0.41;100.00
17260;BME280;8746;49.230;9.220;2023-12-07T07:58:11;100425.44;;;0.45;100.00
17260;BME280;8746;49.230;9.220;2023-12-07T08:00:37;100423.81;;;0.53;100.00
17260;BME280;8746;49.230;9.220;2023-12-07T08:03:02;100430.78;;;0.62;100.00
17260;BME280;8746;49.230;9.220;2023-12-07T08:05:27;100431.69;;;0.64;100.00
17260;BME280;8746;49.230;9.220;2023-12-07T08:07:53;100424.69;;;0.60;100.00
17260;BME280;8746;49.230;9.220;2023-12-07T08:10:18;100432.56;;;0.66;100.00
17260;BME280;8746;49.230;9.220;2023-12-07T08:12:44;100433.44;;;0.68;100.00
17260;BME280;8746;49.230;9.220;2023-12-07T08:15:11;100439.53;;;0.72;100.00
17260;BME280;8746;49.230;9.220;2023-12-07T08:17:40;100433.53;;;0.77;100.00
17260;BME280;8746;49.230;9.220;2023-12-07T08:20:07;100440.47;;;0.78;100.00
17260;BME280;8746;49.230;9.220;2023-12-07T08:22:32;100438.75;;;0.84;100.00
17260;BME280;8746;49.230;9.220;2023-12-07T08:24:58;100439.63;;;0.84;100.00
17260;BME280;8746;49.230;9.220;2023-12-07T08:27:25;100440.56;;;0.92;100.00
17260;BME280;8746;49.230;9.220;2023-12-07T08:29:50;100433.72;;;1.05;100.00
17260;BME280;8746;49.230;9.220;2023-12-07T08:32:15;100433.69;;;1.02;100.00
17260;BME280;8746;49.230;9.220;2023-12-07T08:34:44;100435.41;;;1.00;100.00
17260;BME280;8746;49.230;9.220;2023-12-07T08:37:10;100423.41;;;1.21;100.00
17260;BME280;8746;49.230;9.220;2023-12-07T08:39:36;100431.16;;;1.11;100.00
17260;BME280;8746;49.230;9.220;2023-12-07T08:42:01;100427.69;;;1.11;100.00
17260;BME280;8746;49.230;9.220;2023-12-07T08:44:27;100432.78;;;0.97;100.00
17260;BME280;8746;49.230;9.220;2023-12-07T08:46:52;100429.41;;;1.12;100.00
17260;BME280;8746;49.230;9.220;2023-12-07T08:49:17;100413.03;;;1.25;100.00
17260;BME280;8746;49.230;9.220;2023-12-07T08:51:43;100418.31;;;1.39;100.00
17260;BME280;8746;49.230;9.220;2023-12-07T08:54:09;100404.41;;;1.36;100.00
17260;BME280;8746;49.230;9.220;2023-12-07T08:56:34;100407.00;;;1.31;100.00
17260;BME280;8746;49.230;9.220;2023-12-07T08:58:59;100407.03;;;1.39;100.00
17260;BME280;8746;49.230;9.220;2023-12-07T09:01:25;100398.38;;;1.38;100.00
17260;BME280;8746;49.230;9.220;2023-12-07T09:03:51;100400.19;;;1.55;100.00
17260;BME280;8746;49.230;9.220;2023-12-07T09:06:17;100387.13;;;1.46;100.00
17260;BME280;8746;49.230;9.220;2023-12-07T09:08:43;100390.69;;;1.72;100.00
17260;BME280;8746;49.230;9.220;2023-12-07T09:11:08;100388.94;;;1.60;100.00
17260;BME280;8746;49.230;9.220;2023-12-07T09:13:34;100386.34;;;1.60;100.00
17260;BME280;8746;49.230;9.220;2023-12-07T09:15:59;100380.28;;;1.66;100.00
17260;BME280;8746;49.230;9.220;2023-12-07T09:18:24;100385.53;;;1.80;100.00
17260;BME280;8746;49.230;9.220;2023-12-07T09:20:50;100383.78;;;1.82;100.00
17260;BME280;8746;49.230;9.220;2023-12-07T09:23:16;100381.22;;;1.84;100.00
17260;BME280;8746;49.230;9.220;2023-12-07T09:25:42;100371.63;;;1.73;100.00
17260;BME280;8746;49.230;9.220;2023-12-07T09:28:08;100380.34;;;1.94;100.00
17260;BME280;8746;49.230;9.220;2023-12-07T09:30:33;100379.50;;;1.97;100.00
17260;BME280;8746;49.230;9.220;2023-12-07T09:33:00;100373.44;;;2.10;100.00
17260;BME280;8746;49.230;9.220;2023-12-07T09:35:25;100371.75;;;2.42;100.00
17260;BME280;8746;49.230;9.220;2023-12-07T09:37:50;100363.84;;;3.02;100.00
17260;BME280;8746;49.230;9.220;2023-12-07T09:40:17;100358.28;;;3.85;100.00
17260;BME280;8746;49.230;9.220;2023-12-07T09:42:43;100370.94;;;4.41;100.00
17260;BME280;8746;49.230;9.220;2023-12-07T09:45:09;100355.47;;;5.10;100.00
17260;BME280;8746;49.230;9.220;2023-12-07T09:47:36;100352.66;;;5.94;100.00
17260;BME280;8746;49.230;9.220;2023-12-07T09:50:02;100347.16;;;6.67;99.27
17260;BME280;8746;49.230;9.220;2023-12-07T09:52:28;100348.44;;;6.43;97.15
17260;BME280;8746;49.230;9.220;2023-12-07T09:54:54;100354.28;;;6.61;93.85
17260;BME280;8746;49.230;9.220;2023-12-07T09:57:20;100359.78;;;6.45;92.87
17260;BME280;8746;49.230;9.220;2023-12-07T09:59:46;100358.34;;;7.26;92.59
17260;BME280;8746;49.230;9.220;2023-12-07T10:02:13;100356.41;;;7.34;89.75
17260;BME280;8746;49.230;9.220;2023-12-07T10:04:39;100344.03;;;7.81;85.61
17260;BME280;8746;49.230;9.220;2023-12-07T10:07:05;100343.00;;;7.04;87.98
17260;BME280;8746;49.230;9.220;2023-12-07T10:09:38;100340.44;;;7.45;88.07
17260;BME280;8746;49.230;9.220;2023-12-07T10:12:04;100335.34;;;7.79;87.27
17260;BME280;8746;49.230;9.220;2023-12-07T10:14:31;100329.56;;;8.02;83.79
17260;BME280;8746;49.230;9.220;2023-12-07T10:16:56;100326.81;;;7.68;84.66
17260;BME280;8746;49.230;9.220;2023-12-07T10:19:22;100328.50;;;6.84;87.92
17260;BME280;8746;49.230;9.220;2023-12-07T10:21:48;100319.44;;;7.01;90.23
17260;BME280;8746;49.230;9.220;2023-12-07T10:24:16;100323.19;;;6.39;89.23
17260;BME280;8746;49.230;9.220;2023-12-07T10:26:43;100326.59;;;6.44;94.08
17260;BME280;8746;49.230;9.220;2023-12-07T10:29:09;100315.47;;;7.27;89.42
17260;BME280;8746;49.230;9.220;2023-12-07T10:31:36;100315.78;;;7.91;86.41
17260;BME280;8746;49.230;9.220;2023-12-07T10:34:02;100314.78;;;7.97;85.00
17260;BME280;8746;49.230;9.220;2023-12-07T10:36:27;100317.47;;;6.14;92.89
17260;BME280;8746;49.230;9.220;2023-12-07T10:38:53;100318.94;;;6.32;93.10
17260;BME280;8746;49.230;9.220;2023-12-07T10:41:20;100307.19;;;6.54;93.37
17260;BME280;8746;49.230;9.220;2023-12-07T10:43:52;100304.28;;;6.70;92.60
17260;BME280;8746;49.230;9.220;2023-12-07T10:46:20;100296.13;;;6.37;93.40
17260;BME280;8746;49.230;9.220;2023-12-07T10:48:47;100296.59;;;5.46;97.04
17260;BME280;8746;49.230;9.220;2023-12-07T10:51:23;100298.25;;;4.84;100.00
17260;BME280;8746;49.230;9.220;2023-12-07T10:53:51;100284.00;;;5.09;100.00
17260;BME280;8746;49.230;9.220;2023-12-07T10:56:29;100285.22;;;4.79;100.00
17260;BME280;8746;49.230;9.220;2023-12-07T10:58:58;100287.13;;;4.64;100.00
17260;BME280;8746;49.230;9.220;2023-12-07T11:01:24;100287.28;;;4.49;100.00
17260;BME280;8746;49.230;9.220;2023-12-07T11:03:52;100281.50;;;4.13;100.00
17260;BME280;8746;49.230;9.220;2023-12-07T11:06:21;100287.44;;;4.33;100.00
17260;BME280;8746;49.230;9.220;2023-12-07T11:08:50;100280.50;;;4.28;100.00
17260;BME280;8746;49.230;9.220;2023-12-07T11:13:53;100268.09;;;4.50;100.00
17260;BME280;8746;49.230;9.220;2023-12-07T11:16:52;100266.44;;;4.41;100.00
17260;BME280;8746;49.230;9.220;2023-12-07T11:22:02;100247.53;;;4.14;100.00
17260;BME280;8746;49.230;9.220;2023-12-07T11:24:28;100244.81;;;4.27;100.00
17260;BME280;8746;49.230;9.220;2023-12-07T11:26:54;100243.94;;;4.29;100.00
17260;BME280;8746;49.230;9.220;2023-12-07T11:29:20;100235.22;;;4.29;100.00
17260;BME280;8746;49.230;9.220;2023-12-07T11:31:46;100228.00;;;4.54;100.00
17260;BME280;8746;49.230;9.220;2023-12-07T11:34:11;100220.06;;;4.62;100.00
17260;BME280;8746;49.230;9.220;2023-12-07T11:36:40;100226.28;;;4.53;100.00
17260;BME280;8746;49.230;9.220;2023-12-07T11:41:43;100221.06;;;4.50;100.00
17260;BME280;8746;49.230;9.220;2023-12-07T11:44:09;100213.31;;;4.45;100.00
17260;BME280;8746;49.230;9.220;2023-12-07T11:46:37;100208.84;;;4.55;100.00
17260;BME280;8746;49.230;9.220;2023-12-07T11:49:02;100211.56;;;4.44;100.00
17260;BME280;8746;49.230;9.220;2023-12-07T11:51:29;100192.34;;;4.52;100.00
17260;BME280;8746;49.230;9.220;2023-12-07T11:53:54;100188.78;;;4.57;100.00
17260;BME280;8746;49.230;9.220;2023-12-07T11:56:20;100193.16;;;4.55;100.00
17260;BME280;8746;49.230;9.220;2023-12-07T11:58:46;100184.50;;;4.52;100.00
17260;BME280;8746;49.230;9.220;2023-12-07T12:01:12;100176.00;;;4.32;100.00
17260;BME280;8746;49.230;9.220;2023-12-07T12:03:38;100175.84;;;4.45;100.00
17260;BME280;8746;49.230;9.220;2023-12-07T12:06:05;100168.06;;;4.42;100.00
17260;BME280;8746;49.230;9.220;2023-12-07T12:08:31;100165.41;;;4.45;100.00
17260;BME280;8746;49.230;9.220;2023-12-07T12:10:57;100161.22;;;4.30;100.00
17260;BME280;8746;49.230;9.220;2023-12-07T12:13:29;100153.44;;;4.25;100.00
17260;BME280;8746;49.230;9.220;2023-12-07T12:15:56;100148.28;;;4.19;100.00
17260;BME280;8746;49.230;9.220;2023-12-07T12:18:22;100155.19;;;4.23;100.00
17260;BME280;8746;49.230;9.220;2023-12-07T12:20:49;100147.28;;;4.31;100.00
17260;BME280;8746;49.230;9.220;2023-12-07T12:23:15;100135.09;;;4.30;100.00
17260;BME280;8746;49.230;9.220;2023-12-07T12:25:40;100131.72;;;4.22;100.00
17260;BME280;8746;49.230;9.220;2023-12-07T12:28:07;100125.63;;;4.21;100.00
17260;BME280;8746;49.230;9.220;2023-12-07T12:30:33;100114.25;;;4.25;100.00
17260;BME280;8746;49.230;9.220;2023-12-07T12:32:59;100122.97;;;4.24;100.00
17260;BME280;8746;49.230;9.220;2023-12-07T12:35:28;100118.59;;;4.29;100.00
17260;BME280;8746;49.230;9.220;2023-12-07T12:37:53;100110.75;;;4.26;100.00
17260;BME280;8746;49.230;9.220;2023-12-07T12:40:23;100120.53;;;4.09;100.00
17260;BME280;8746;49.230;9.220;2023-12-07T12:42:50;100114.47;;;4.07;100.00
17260;BME280;8746;49.230;9.220;2023-12-07T12:45:17;100100.63;;;3.98;100.00
17260;BME280;8746;49.230;9.220;2023-12-07T12:47:43;100096.28;;;3.99;100.00
17260;BME280;8746;49.230;9.220;2023-12-07T12:50:11;100100.66;;;3.97;100.00
17260;BME280;8746;49.230;9.220;2023-12-07T12:52:36;100092.72;;;4.05;100.00
17260;BME280;8746;49.230;9.220;2023-12-07T12:55:07;100091.72;;;4.16;100.00
17260;BME280;8746;49.230;9.220;2023-12-07T12:57:33;100087.41;;;4.14;100.00
17260;BME280;8746;49.230;9.220;2023-12-07T13:00:00;100086.53;;;4.13;100.00
17260;BME280;8746;49.230;9.220;2023-12-07T13:02:25;100084.72;;;4.20;100.00